ELY2521 LLBG-LKPR
Flight info
| Callsign | ELY2521 |
|---|---|
| Flight time | N/A |
| Altitude | 36000 |
| Route | DAFNA DCT VELOX N71 DESPO DCT VOLBE DCT VESAR UB545 MUT UL619 OSVEL UQ23 OSDAN UQ26 TUDBU DCT ARNOV DCT ETUBA DCT APROB/N0441F380 DCT BUDOP DCT LITKU DCT SLC DCT VALPI DCT TUMKA DCT VLM |
| Aircraft | B738/M-SDE2E3FGHIJ1LORVWXY/LB1 |
Departure
| Time | 2026-05-04 07:49 |
|---|---|
| Airport | Ben Gurion International Airport (LLBG) |
Arrival
| Time | N/A |
|---|---|
| Airport | Václav Havel Airport Prague (LKPR) |
| Time | Latitude | Longitude | Altitude | Speed | Heading |
|---|---|---|---|---|---|
| 2026-05-04 07:12 | 32.00370 | 34.87640 | 119 ft | 0 kts | 272° |
| 2026-05-04 07:38 | 32.00330 | 34.87730 | 119 ft | 4 kts | 13° |
| 2026-05-04 07:38 | 32.00307 | 34.87721 | 119 ft | 1 kts | 31° |
| 2026-05-04 07:38 | 32.00306 | 34.87721 | 118 ft | 1 kts | 31° |
| 2026-05-04 07:41 | 32.00307 | 34.87721 | 119 ft | 1 kts | 31° |
| 2026-05-04 07:42 | 32.00338 | 34.87741 | 119 ft | 8 kts | 28° |
| 2026-05-04 07:42 | 32.00397 | 34.87783 | 119 ft | 11 kts | 31° |
| 2026-05-04 07:42 | 32.00461 | 34.87829 | 118 ft | 9 kts | 31° |
| 2026-05-04 07:42 | 32.00511 | 34.87864 | 119 ft | 9 kts | 31° |
| 2026-05-04 07:43 | 32.00582 | 34.87915 | 117 ft | 15 kts | 31° |
| 2026-05-04 07:43 | 32.00691 | 34.87992 | 117 ft | 21 kts | 31° |
| 2026-05-04 07:43 | 32.00795 | 34.88068 | 117 ft | 16 kts | 32° |
| 2026-05-04 07:43 | 32.00884 | 34.88133 | 115 ft | 16 kts | 31° |
| 2026-05-04 07:44 | 32.00992 | 34.88212 | 117 ft | 21 kts | 31° |
| 2026-05-04 07:44 | 32.01117 | 34.88301 | 119 ft | 21 kts | 32° |
| 2026-05-04 07:44 | 32.01236 | 34.88388 | 118 ft | 20 kts | 34° |
| 2026-05-04 07:44 | 32.01338 | 34.88492 | 118 ft | 19 kts | 47° |
| 2026-05-04 07:45 | 32.01424 | 34.88626 | 118 ft | 22 kts | 59° |
| 2026-05-04 07:45 | 32.01486 | 34.88796 | 119 ft | 23 kts | 73° |
| 2026-05-04 07:45 | 32.01516 | 34.88973 | 116 ft | 21 kts | 79° |
| 2026-05-04 07:45 | 32.01537 | 34.89111 | 119 ft | 12 kts | 79° |
| 2026-05-04 07:46 | 32.01587 | 34.89163 | 118 ft | 10 kts | 359° |
| 2026-05-04 07:46 | 32.01636 | 34.89153 | 118 ft | 2 kts | 349° |
| 2026-05-04 07:46 | 32.01646 | 34.89151 | 118 ft | 0 kts | 349° |
| 2026-05-04 07:46 | 32.01657 | 34.89149 | 117 ft | 6 kts | 349° |
| 2026-05-04 07:47 | 32.01722 | 34.89134 | 117 ft | 8 kts | 349° |
| 2026-05-04 07:47 | 32.01749 | 34.89110 | 117 ft | 5 kts | 275° |
| 2026-05-04 07:47 | 32.01747 | 34.89094 | 117 ft | 0 kts | 259° |
| 2026-05-04 07:49 | 32.01062 | 34.84585 | 1601 ft | 159 kts | 259° |
| 2026-05-04 07:49 | 32.00885 | 34.83282 | 2300 ft | 164 kts | 257° |
| 2026-05-04 07:49 | 32.00655 | 34.81978 | 3106 ft | 163 kts | 258° |
| 2026-05-04 07:50 | 32.00398 | 34.80642 | 3718 ft | 177 kts | 257° |
| 2026-05-04 07:50 | 32.00097 | 34.79128 | 3979 ft | 201 kts | 256° |
| 2026-05-04 07:50 | 31.99741 | 34.77428 | 4173 ft | 226 kts | 256° |
| 2026-05-04 07:50 | 31.99383 | 34.75527 | 4473 ft | 247 kts | 265° |
| 2026-05-04 07:51 | 31.99666 | 34.73516 | 5237 ft | 253 kts | 288° |
| 2026-05-04 07:51 | 32.00284 | 34.71571 | 6135 ft | 254 kts | 288° |
| 2026-05-04 07:51 | 32.00900 | 34.69616 | 6979 ft | 256 kts | 288° |
| 2026-05-04 07:51 | 32.01517 | 34.67640 | 7633 ft | 258 kts | 287° |
| 2026-05-04 07:52 | 32.02105 | 34.65672 | 7959 ft | 258 kts | 285° |
| 2026-05-04 07:52 | 32.02854 | 34.63716 | 7982 ft | 269 kts | 305° |
| 2026-05-04 07:52 | 32.04313 | 34.62289 | 8352 ft | 276 kts | 321° |
| 2026-05-04 07:52 | 32.05925 | 34.61027 | 9129 ft | 279 kts | 321° |
| 2026-05-04 07:53 | 32.07559 | 34.59767 | 9924 ft | 281 kts | 321° |
| 2026-05-04 07:54 | 32.20531 | 34.49637 | 14122 ft | 337 kts | 317° |
| 2026-05-04 07:55 | 32.22500 | 34.48092 | 14816 ft | 340 kts | 317° |
| 2026-05-04 07:55 | 32.24462 | 34.46551 | 15450 ft | 344 kts | 317° |
| 2026-05-04 07:55 | 32.26459 | 34.44980 | 16123 ft | 346 kts | 316° |
| 2026-05-04 07:55 | 32.28472 | 34.43397 | 16757 ft | 349 kts | 316° |
| 2026-05-04 07:56 | 32.30504 | 34.41799 | 17386 ft | 351 kts | 316° |
| 2026-05-04 07:56 | 32.32561 | 34.40179 | 17998 ft | 354 kts | 316° |
| 2026-05-04 07:56 | 32.34622 | 34.38556 | 18622 ft | 356 kts | 316° |
| 2026-05-04 07:56 | 32.36670 | 34.36940 | 19176 ft | 359 kts | 315° |
| 2026-05-04 07:57 | 32.38761 | 34.35290 | 19703 ft | 363 kts | 315° |
| 2026-05-04 07:57 | 32.40875 | 34.33619 | 20232 ft | 366 kts | 315° |
| 2026-05-04 07:57 | 32.43011 | 34.31934 | 20880 ft | 366 kts | 315° |
| 2026-05-04 07:57 | 32.45133 | 34.30257 | 21331 ft | 371 kts | 315° |
| 2026-05-04 07:58 | 32.47287 | 34.28551 | 21791 ft | 374 kts | 314° |
| 2026-05-04 07:58 | 32.49456 | 34.26837 | 22371 ft | 374 kts | 314° |
| 2026-05-04 07:58 | 32.51612 | 34.25144 | 22838 ft | 379 kts | 316° |
| 2026-05-04 07:58 | 32.54033 | 34.23714 | 23255 ft | 399 kts | 326° |
| 2026-05-04 07:59 | 32.56731 | 34.22725 | 23716 ft | 414 kts | 335° |
| 2026-05-04 07:59 | 32.59656 | 34.22211 | 24090 ft | 429 kts | 342° |
| 2026-05-04 07:59 | 32.62658 | 34.21864 | 24449 ft | 435 kts | 343° |
| 2026-05-04 07:59 | 32.65653 | 34.21567 | 24929 ft | 436 kts | 343° |
| 2026-05-04 08:00 | 32.68686 | 34.21270 | 25367 ft | 437 kts | 343° |
| 2026-05-04 08:00 | 32.71742 | 34.20962 | 25816 ft | 438 kts | 342° |
| 2026-05-04 08:00 | 32.74756 | 34.20643 | 26135 ft | 442 kts | 342° |
| 2026-05-04 08:02 | 32.96622 | 34.18158 | 28516 ft | 457 kts | 342° |
| 2026-05-04 08:02 | 32.99799 | 34.17794 | 28813 ft | 459 kts | 342° |
| 2026-05-04 08:02 | 33.02989 | 34.17426 | 29089 ft | 462 kts | 342° |
| 2026-05-04 08:03 | 33.06198 | 34.17056 | 29371 ft | 464 kts | 341° |
| 2026-05-04 08:03 | 33.09426 | 34.16683 | 29641 ft | 467 kts | 342° |
| 2026-05-04 08:03 | 33.12682 | 34.16306 | 29875 ft | 470 kts | 342° |
| 2026-05-04 08:03 | 33.15898 | 34.15935 | 30140 ft | 472 kts | 342° |
| 2026-05-04 08:04 | 33.19183 | 34.15559 | 30417 ft | 473 kts | 342° |
| 2026-05-04 08:04 | 33.22475 | 34.15180 | 30660 ft | 475 kts | 342° |
| 2026-05-04 08:04 | 33.25775 | 34.14798 | 30885 ft | 477 kts | 342° |
| 2026-05-04 08:04 | 33.29052 | 34.14419 | 31130 ft | 479 kts | 342° |
| 2026-05-04 08:05 | 33.32353 | 34.14043 | 31643 ft | 473 kts | 342° |
| 2026-05-04 08:05 | 33.35627 | 34.13671 | 32033 ft | 471 kts | 342° |
| 2026-05-04 08:05 | 33.38900 | 34.13292 | 32249 ft | 472 kts | 342° |
| 2026-05-04 08:05 | 33.42187 | 34.12907 | 32451 ft | 474 kts | 342° |
| 2026-05-04 08:06 | 33.45437 | 34.12528 | 32742 ft | 474 kts | 342° |
| 2026-05-04 08:06 | 33.48719 | 34.12148 | 33094 ft | 472 kts | 342° |
| 2026-05-04 08:06 | 33.51979 | 34.11772 | 33394 ft | 471 kts | 342° |
| 2026-05-04 08:06 | 33.55249 | 34.11392 | 33670 ft | 470 kts | 342° |
| 2026-05-04 08:08 | 33.77926 | 34.08764 | 35360 ft | 471 kts | 346° |
| 2026-05-04 08:08 | 33.81253 | 34.08861 | 35570 ft | 485 kts | 356° |
| 2026-05-04 08:10 | 34.07570 | 34.20517 | 35896 ft | 503 kts | 13° |
| 2026-05-04 08:11 | 34.10828 | 34.22056 | 35894 ft | 502 kts | 13° |
| 2026-05-04 08:11 | 34.20530 | 34.26642 | 35885 ft | 500 kts | 13° |
| 2026-05-04 08:12 | 34.27028 | 34.29726 | 35889 ft | 501 kts | 13° |
| 2026-05-04 08:12 | 34.33529 | 34.32820 | 35884 ft | 503 kts | 14° |
| 2026-05-04 08:13 | 34.40080 | 34.35917 | 35875 ft | 502 kts | 10° |
| 2026-05-04 08:13 | 34.43390 | 34.36927 | 35865 ft | 490 kts | 359° |
| 2026-05-04 08:13 | 34.46747 | 34.37272 | 35882 ft | 479 kts | 350° |
| 2026-05-04 08:14 | 34.50044 | 34.37048 | 35859 ft | 467 kts | 340° |
| 2026-05-04 08:14 | 34.53176 | 34.36303 | 35903 ft | 462 kts | 338° |
| 2026-05-04 08:16 | 34.78838 | 34.29839 | 35850 ft | 474 kts | 339° |
| 2026-05-04 08:16 | 34.85311 | 34.28241 | 35849 ft | 473 kts | 339° |
| 2026-05-04 08:17 | 34.91732 | 34.26652 | 35839 ft | 472 kts | 339° |
| 2026-05-04 08:17 | 34.98178 | 34.25057 | 35843 ft | 470 kts | 339° |
| 2026-05-04 08:19 | 35.23743 | 34.18690 | 35842 ft | 467 kts | 340° |
| 2026-05-04 08:20 | 35.30090 | 34.17103 | 35842 ft | 468 kts | 340° |
| 2026-05-04 08:20 | 35.36456 | 34.15510 | 35841 ft | 468 kts | 340° |
| 2026-05-04 08:21 | 35.42857 | 34.13905 | 35850 ft | 469 kts | 341° |
| 2026-05-04 08:21 | 35.49255 | 34.12302 | 35841 ft | 471 kts | 341° |
| 2026-05-04 08:22 | 35.55699 | 34.10681 | 35848 ft | 472 kts | 341° |
| 2026-05-04 08:24 | 35.80472 | 34.04423 | 35847 ft | 476 kts | 341° |
| 2026-05-04 08:24 | 35.86984 | 34.02773 | 35849 ft | 476 kts | 341° |
| 2026-05-04 08:25 | 35.93238 | 34.00403 | 35854 ft | 461 kts | 326° |
| 2026-05-04 08:25 | 35.98644 | 33.96412 | 35849 ft | 453 kts | 320° |
| 2026-05-04 08:27 | 36.20077 | 33.79996 | 35852 ft | 453 kts | 321° |
| 2026-05-04 08:28 | 36.25427 | 33.75917 | 35858 ft | 453 kts | 321° |
| 2026-05-04 08:28 | 36.30788 | 33.71832 | 35845 ft | 453 kts | 321° |
| 2026-05-04 08:29 | 36.36145 | 33.67755 | 35843 ft | 452 kts | 322° |
| 2026-05-04 08:31 | 36.57630 | 33.51315 | 35833 ft | 456 kts | 322° |
| 2026-05-04 08:33 | 36.79310 | 33.34611 | 35834 ft | 459 kts | 322° |
| 2026-05-04 08:35 | 36.95664 | 33.16571 | 35817 ft | 447 kts | 307° |
| 2026-05-04 08:35 | 36.97733 | 33.13710 | 35821 ft | 447 kts | 307° |
| 2026-05-04 08:35 | 37.01932 | 33.07946 | 35822 ft | 446 kts | 308° |
| 2026-05-04 08:37 | 37.16583 | 32.87893 | 35819 ft | 447 kts | 308° |
| 2026-05-04 08:38 | 37.20776 | 32.82131 | 35805 ft | 448 kts | 308° |
| 2026-05-04 08:38 | 37.24982 | 32.76342 | 35819 ft | 448 kts | 308° |
| 2026-05-04 08:40 | 37.41771 | 32.53125 | 35807 ft | 450 kts | 309° |
| 2026-05-04 08:41 | 37.45997 | 32.47255 | 35808 ft | 451 kts | 309° |
| 2026-05-04 08:41 | 37.50194 | 32.41415 | 35813 ft | 452 kts | 309° |
| 2026-05-04 08:42 | 37.54393 | 32.35562 | 35813 ft | 452 kts | 309° |
| 2026-05-04 08:42 | 37.58624 | 32.29654 | 35813 ft | 453 kts | 309° |
| 2026-05-04 08:43 | 37.62832 | 32.23765 | 35813 ft | 453 kts | 309° |
| 2026-05-04 08:43 | 37.67044 | 32.17860 | 35811 ft | 453 kts | 309° |
| 2026-05-04 08:44 | 37.71223 | 32.11989 | 35814 ft | 453 kts | 309° |
| 2026-05-04 08:46 | 37.88070 | 31.88224 | 35821 ft | 455 kts | 309° |
| 2026-05-04 08:46 | 37.92296 | 31.82234 | 35820 ft | 455 kts | 309° |
| 2026-05-04 08:47 | 37.96488 | 31.76282 | 35830 ft | 454 kts | 309° |
| 2026-05-04 08:47 | 38.00702 | 31.70285 | 35835 ft | 454 kts | 309° |
| 2026-05-04 08:48 | 38.04877 | 31.64333 | 35841 ft | 453 kts | 310° |
| 2026-05-04 08:48 | 38.09072 | 31.58341 | 35852 ft | 453 kts | 310° |
| 2026-05-04 08:49 | 38.13264 | 31.52349 | 35851 ft | 453 kts | 310° |
| 2026-05-04 08:50 | 38.27855 | 31.31380 | 35882 ft | 453 kts | 310° |
| 2026-05-04 08:51 | 38.32013 | 31.25376 | 35886 ft | 453 kts | 310° |
| 2026-05-04 08:51 | 38.36194 | 31.19329 | 35890 ft | 453 kts | 310° |
| 2026-05-04 08:52 | 38.40372 | 31.13276 | 35896 ft | 453 kts | 310° |
| 2026-05-04 08:52 | 38.44514 | 31.07263 | 35896 ft | 453 kts | 310° |
| 2026-05-04 08:54 | 38.64403 | 30.87552 | 36077 ft | 460 kts | 324° |
| 2026-05-04 08:55 | 38.67034 | 30.85218 | 36305 ft | 459 kts | 324° |
| 2026-05-04 08:55 | 38.69652 | 30.82886 | 36529 ft | 458 kts | 324° |
| 2026-05-04 08:55 | 38.72278 | 30.80545 | 36708 ft | 458 kts | 324° |
| 2026-05-04 08:55 | 38.74868 | 30.78233 | 36871 ft | 458 kts | 324° |
| 2026-05-04 08:57 | 38.93772 | 30.63282 | 37908 ft | 459 kts | 333° |
| 2026-05-04 09:01 | 39.33042 | 30.37736 | 37953 ft | 458 kts | 332° |
| 2026-05-04 09:01 | 39.38746 | 30.33973 | 37955 ft | 461 kts | 332° |
| 2026-05-04 09:02 | 39.44497 | 30.30177 | 37950 ft | 463 kts | 332° |
| 2026-05-04 09:02 | 39.50174 | 30.26442 | 37945 ft | 455 kts | 334° |
| 2026-05-04 09:03 | 39.55977 | 30.23211 | 37943 ft | 452 kts | 338° |
| 2026-05-04 09:03 | 39.61781 | 30.20217 | 37939 ft | 450 kts | 338° |
| 2026-05-04 09:04 | 39.67594 | 30.17166 | 37951 ft | 449 kts | 338° |
| 2026-05-04 09:04 | 39.73347 | 30.14093 | 37947 ft | 449 kts | 338° |
| 2026-05-04 09:05 | 39.79142 | 30.10985 | 37951 ft | 450 kts | 338° |
| 2026-05-04 09:05 | 39.84952 | 30.07860 | 37957 ft | 452 kts | 338° |
| 2026-05-04 09:06 | 39.90747 | 30.04740 | 37956 ft | 454 kts | 338° |
| 2026-05-04 09:08 | 40.14263 | 29.92015 | 37982 ft | 460 kts | 337° |
| 2026-05-04 09:08 | 40.20162 | 29.88805 | 37990 ft | 460 kts | 338° |
| 2026-05-04 09:09 | 40.26078 | 29.85581 | 37986 ft | 459 kts | 337° |
| 2026-05-04 09:09 | 40.31944 | 29.82378 | 37999 ft | 458 kts | 337° |
| 2026-05-04 09:10 | 40.37828 | 29.79159 | 37987 ft | 457 kts | 338° |
| 2026-05-04 09:10 | 40.43715 | 29.75929 | 38016 ft | 456 kts | 339° |
| 2026-05-04 09:11 | 40.49481 | 29.72762 | 37992 ft | 441 kts | 339° |
| 2026-05-04 09:11 | 40.55049 | 29.69697 | 38001 ft | 428 kts | 339° |
| 2026-05-04 09:12 | 40.60517 | 29.66685 | 38008 ft | 427 kts | 339° |
| 2026-05-04 09:14 | 40.79697 | 29.49324 | 38016 ft | 447 kts | 323° |
| 2026-05-04 09:14 | 40.82866 | 29.45970 | 38010 ft | 446 kts | 323° |
| 2026-05-04 09:15 | 40.87674 | 29.40879 | 38005 ft | 437 kts | 323° |